createdAt,value
2022-07-28T00:00:42.535Z,44.87
2022-07-28T00:03:10.813Z,44.93
2022-07-28T00:05:39.149Z,44.90
2022-07-28T00:08:07.813Z,45.27
2022-07-28T00:10:37.588Z,44.46
2022-07-28T00:13:06.971Z,45.32
2022-07-28T00:15:35.193Z,45.56
2022-07-28T00:18:03.201Z,45.65
2022-07-28T00:20:31.730Z,44.88
2022-07-28T00:23:00.491Z,45.41
2022-07-28T00:25:29.471Z,44.94
2022-07-28T00:27:59.007Z,45.56
2022-07-28T00:30:26.935Z,45.10
2022-07-28T00:32:56.019Z,45.36
2022-07-28T00:35:31.030Z,44.80
2022-07-28T00:38:00.980Z,45.21
2022-07-28T00:40:45.461Z,45.18
2022-07-28T00:43:15.367Z,44.78
2022-07-28T00:45:44.880Z,44.64
2022-07-28T00:48:13.071Z,44.80
2022-07-28T00:50:41.879Z,45.30
2022-07-28T00:53:10.424Z,44.64
2022-07-28T00:56:05.437Z,44.87
2022-07-28T00:58:30.409Z,45.04
2022-07-28T01:00:58.852Z,45.36
2022-07-28T01:03:27.721Z,45.52
2022-07-28T01:06:05.784Z,45.52
2022-07-28T01:08:49.222Z,45.46
2022-07-28T01:11:28.923Z,45.58
2022-07-28T01:14:07.451Z,45.40
2022-07-28T01:16:40.521Z,45.69
2022-07-28T01:19:19.047Z,45.97
2022-07-28T01:21:49.023Z,45.96
2022-07-28T01:24:26.280Z,46.00
2022-07-28T01:27:00.706Z,45.41
2022-07-28T01:30:07.059Z,45.68
2022-07-28T01:32:43.198Z,46.14
2022-07-28T01:35:15.682Z,45.92
2022-07-28T01:37:48.349Z,46.00
2022-07-28T01:40:18.689Z,45.71
2022-07-28T01:42:49.853Z,45.38
2022-07-28T01:45:20.953Z,45.09
2022-07-28T01:47:52.572Z,45.46
2022-07-28T01:50:27.006Z,45.61
2022-07-28T01:53:02.289Z,45.90
2022-07-28T01:55:32.845Z,45.81
2022-07-28T01:58:05.733Z,46.20
2022-07-28T02:00:35.049Z,45.70
2022-07-28T02:03:07.170Z,46.56
2022-07-28T02:05:37.578Z,46.38
2022-07-28T02:08:09.191Z,46.32
2022-07-28T02:10:42.126Z,47.10
2022-07-28T02:13:12.411Z,46.22
2022-07-28T02:15:42.139Z,46.38
2022-07-28T02:18:12.525Z,46.32
2022-07-28T02:20:41.773Z,46.42
2022-07-28T02:23:11.171Z,46.51
2022-07-28T02:25:42.169Z,46.21
2022-07-28T02:28:13.317Z,45.91
2022-07-28T02:30:48.050Z,46.79
2022-07-28T02:33:36.442Z,46.96
2022-07-28T02:36:15.211Z,46.33
2022-07-28T02:38:47.464Z,46.68
2022-07-28T02:41:20.050Z,47.06
2022-07-28T02:43:53.631Z,46.74
2022-07-28T02:46:29.869Z,46.28
2022-07-28T02:49:07.941Z,46.95
2022-07-28T02:51:39.504Z,46.82
2022-07-28T02:54:08.498Z,46.99
2022-07-28T02:56:39.430Z,46.88
2022-07-28T02:59:14.483Z,47.09
2022-07-28T03:01:45.213Z,46.85
2022-07-28T03:04:17.195Z,47.01
2022-07-28T03:06:48.253Z,46.47
2022-07-28T03:09:16.939Z,47.12
2022-07-28T03:11:53.449Z,46.87
2022-07-28T03:14:21.463Z,47.22
2022-07-28T03:16:55.112Z,47.50
2022-07-28T03:19:24.909Z,47.95
2022-07-28T03:21:54.112Z,47.99
2022-07-28T03:24:29.716Z,47.76
2022-07-28T03:27:05.566Z,47.61
2022-07-28T03:29:34.944Z,47.64
2022-07-28T03:32:03.314Z,47.71
2022-07-28T03:34:32.984Z,47.44
2022-07-28T03:37:04.641Z,47.38
2022-07-28T03:39:38.874Z,48.02
2022-07-28T03:42:07.805Z,47.70
2022-07-28T03:44:36.726Z,47.84
2022-07-28T03:47:06.954Z,48.50
2022-07-28T03:49:36.400Z,48.63
2022-07-28T03:52:04.602Z,47.95
2022-07-28T03:54:32.499Z,48.36
2022-07-28T03:57:00.494Z,48.36
2022-07-28T03:59:28.465Z,48.98
2022-07-28T04:01:57.424Z,48.72
2022-07-28T04:04:26.357Z,48.68
2022-07-28T04:06:55.922Z,48.84
2022-07-28T04:09:24.208Z,49.34
2022-07-28T04:11:52.126Z,48.74
2022-07-28T04:14:21.531Z,48.24
2022-07-28T04:16:50.337Z,47.99
2022-07-28T04:19:18.689Z,48.39
2022-07-28T04:21:47.078Z,48.25
2022-07-28T04:24:16.778Z,49.08
2022-07-28T04:26:45.850Z,48.97
2022-07-28T04:29:14.862Z,48.94
2022-07-28T04:31:52.089Z,48.74
2022-07-28T04:34:21.888Z,48.69
2022-07-28T04:36:52.163Z,48.26
2022-07-28T04:39:22.578Z,48.67
2022-07-28T04:41:53.433Z,48.58
2022-07-28T04:44:22.466Z,48.23
2022-07-28T04:46:51.505Z,48.63
2022-07-28T04:49:22.260Z,47.93
2022-07-28T04:51:53.250Z,48.25
2022-07-28T04:54:28.673Z,48.41
2022-07-28T04:56:59.713Z,48.42
2022-07-28T04:59:36.606Z,48.60
2022-07-28T05:02:08.186Z,48.47
2022-07-28T05:04:38.014Z,48.38
2022-07-28T05:07:12.886Z,48.45
2022-07-28T05:09:43.410Z,48.42
2022-07-28T05:12:11.596Z,48.28
2022-07-28T05:14:39.801Z,48.89
2022-07-28T05:17:09.155Z,48.79
2022-07-28T05:19:38.217Z,48.05
2022-07-28T05:22:07.156Z,47.66
2022-07-28T05:24:35.484Z,48.11
2022-07-28T05:27:05.023Z,47.86
2022-07-28T05:29:35.117Z,48.22
2022-07-28T05:32:16.202Z,48.27
2022-07-28T05:34:45.819Z,48.54
2022-07-28T05:37:13.979Z,48.55
2022-07-28T05:39:42.120Z,48.10
2022-07-28T05:42:11.672Z,48.46
2022-07-28T05:44:39.640Z,48.20
2022-07-28T05:47:08.289Z,48.17
2022-07-28T05:49:36.305Z,47.72
2022-07-28T05:52:04.637Z,48.45
2022-07-28T05:54:32.745Z,48.28
2022-07-28T05:57:00.705Z,48.85
2022-07-28T05:59:30.045Z,47.70
2022-07-28T06:01:57.988Z,48.59
2022-07-28T06:04:27.997Z,48.43
2022-07-28T06:06:56.778Z,47.93
2022-07-28T06:09:24.970Z,48.32
2022-07-28T06:11:52.966Z,47.78
2022-07-28T06:14:21.372Z,47.94
2022-07-28T06:16:51.686Z,47.55
2022-07-28T06:19:19.743Z,48.17
2022-07-28T06:21:48.020Z,47.87
2022-07-28T06:24:16.287Z,47.78
2022-07-28T06:26:45.143Z,48.21
2022-07-28T06:29:13.953Z,48.11
2022-07-28T06:31:42.206Z,48.54
2022-07-28T06:34:11.978Z,47.43
2022-07-28T06:36:40.136Z,48.26
2022-07-28T06:39:08.889Z,47.77
2022-07-28T06:41:41.569Z,47.89
2022-07-28T06:44:12.283Z,47.21
2022-07-28T06:46:40.717Z,47.51
2022-07-28T06:49:08.797Z,48.25
2022-07-28T06:51:38.301Z,48.34
2022-07-28T06:54:11.020Z,47.75
2022-07-28T06:56:39.601Z,47.40
2022-07-28T06:59:08.137Z,47.63
2022-07-28T07:01:36.116Z,47.64
2022-07-28T07:04:04.239Z,48.81
2022-07-28T07:06:32.162Z,49.28
2022-07-28T07:09:01.432Z,49.93
2022-07-28T07:11:29.419Z,50.33
2022-07-28T07:13:57.421Z,50.48
2022-07-28T07:16:25.637Z,50.64
2022-07-28T07:18:53.823Z,51.18
2022-07-28T07:21:21.884Z,51.08
2022-07-28T07:23:51.047Z,51.10
2022-07-28T07:26:20.643Z,50.55
2022-07-28T07:28:48.665Z,52.49
2022-07-28T07:31:16.841Z,53.06
2022-07-28T07:33:44.896Z,52.64
2022-07-28T07:36:12.850Z,52.63
2022-07-28T07:38:41.091Z,52.03
2022-07-28T07:41:09.119Z,51.85
2022-07-28T07:43:38.937Z,51.54
2022-07-28T07:46:08.275Z,51.84
2022-07-28T07:48:36.361Z,51.45
2022-07-28T07:51:04.767Z,51.17
2022-07-28T07:53:33.003Z,50.71
2022-07-28T07:56:01.397Z,50.57
2022-07-28T07:58:29.984Z,49.78
2022-07-28T08:01:40.818Z,49.55
2022-07-28T08:04:10.417Z,49.52
2022-07-28T08:06:38.534Z,48.39
2022-07-28T08:11:35.919Z,48.53
2022-07-28T08:14:04.159Z,48.88
2022-07-28T08:16:33.936Z,48.19
2022-07-28T08:19:06.610Z,48.04
2022-07-28T08:21:47.307Z,46.98
2022-07-28T08:24:27.669Z,47.27
2022-07-28T08:27:03.788Z,46.98
2022-07-28T08:29:33.475Z,46.86
2022-07-28T08:32:03.930Z,45.43
2022-07-28T08:34:34.011Z,47.04
2022-07-28T08:37:05.856Z,47.50
2022-07-28T08:39:36.266Z,46.63
2022-07-28T08:42:07.770Z,46.76
2022-07-28T08:44:44.299Z,46.84
2022-07-28T08:47:12.867Z,45.74
2022-07-28T08:49:43.048Z,46.30
2022-07-28T08:52:14.293Z,45.41
2022-07-28T08:54:45.941Z,44.99
2022-07-28T08:57:18.754Z,45.51
2022-07-28T08:59:48.954Z,46.17
2022-07-28T09:02:19.688Z,46.62
2022-07-28T09:04:48.648Z,46.22
2022-07-28T09:09:49.463Z,45.84
2022-07-28T09:12:18.495Z,45.61
2022-07-28T09:14:47.343Z,45.84
2022-07-28T09:17:15.382Z,45.21
2022-07-28T09:19:43.446Z,45.09
2022-07-28T09:22:11.421Z,45.62
2022-07-28T09:24:44.535Z,44.73
2022-07-28T09:27:15.161Z,44.58
2022-07-28T09:29:47.258Z,44.90
2022-07-28T09:32:16.872Z,44.63
2022-07-28T09:34:46.390Z,44.86
2022-07-28T09:37:24.733Z,44.00
2022-07-28T09:39:59.306Z,44.64
2022-07-28T09:42:27.854Z,44.34
2022-07-28T09:45:22.280Z,44.17
2022-07-28T09:48:10.247Z,43.72
2022-07-28T09:50:39.550Z,43.97
2022-07-28T09:53:27.582Z,44.16
2022-07-28T09:55:59.971Z,43.27
2022-07-28T09:58:30.476Z,44.55
2022-07-28T10:01:07.195Z,44.57
2022-07-28T10:03:36.980Z,43.54
2022-07-28T10:06:08.620Z,43.41
2022-07-28T10:09:26.667Z,43.00
2022-07-28T10:12:15.869Z,43.84
2022-07-28T10:14:43.839Z,42.70
2022-07-28T10:17:11.803Z,41.96
2022-07-28T10:19:40.874Z,42.41
2022-07-28T10:22:09.589Z,42.42
2022-07-28T10:24:41.121Z,41.86
2022-07-28T10:27:10.940Z,41.44
2022-07-28T10:29:41.316Z,41.81
2022-07-28T10:32:13.505Z,41.02
2022-07-28T10:34:51.885Z,41.12
2022-07-28T10:37:25.072Z,40.00
2022-07-28T10:40:10.587Z,40.54
2022-07-28T10:42:43.944Z,40.63
2022-07-28T10:45:13.769Z,40.46
2022-07-28T10:47:43.274Z,41.25
2022-07-28T10:50:11.832Z,41.55
2022-07-28T10:52:48.319Z,41.16
2022-07-28T10:55:32.508Z,41.12
2022-07-28T10:58:24.763Z,41.17
2022-07-28T11:00:57.151Z,41.04
2022-07-28T11:03:39.974Z,41.26
2022-07-28T11:06:28.605Z,41.46
2022-07-28T11:08:58.279Z,41.59
2022-07-28T11:11:46.673Z,40.99
2022-07-28T11:14:37.318Z,41.47
2022-07-28T11:17:24.360Z,41.65
2022-07-28T11:22:44.931Z,41.49
2022-07-28T11:25:19.185Z,41.81
2022-07-28T11:28:05.908Z,41.26
2022-07-28T11:30:56.258Z,42.06
2022-07-28T11:33:27.447Z,42.77
2022-07-28T11:36:02.202Z,42.42
2022-07-28T11:38:30.907Z,42.53
2022-07-28T11:40:58.801Z,42.28
2022-07-28T11:43:38.934Z,41.60
2022-07-28T11:46:24.871Z,41.60
2022-07-28T11:49:29.558Z,41.58
2022-07-28T11:52:15.703Z,41.90
2022-07-28T11:54:50.583Z,41.76
2022-07-28T11:57:19.644Z,41.45
2022-07-28T11:59:50.632Z,41.06
2022-07-28T12:02:23.892Z,40.66
2022-07-28T12:05:08.185Z,40.18
2022-07-28T12:07:39.287Z,40.34
2022-07-28T12:13:27.729Z,39.57
2022-07-28T12:15:55.927Z,39.28
2022-07-28T12:18:25.629Z,39.50
2022-07-28T12:21:00.548Z,38.86
2022-07-28T12:23:45.643Z,38.56
2022-07-28T12:26:31.837Z,38.68
2022-07-28T12:29:03.125Z,38.69
2022-07-28T12:31:39.416Z,38.77
2022-07-28T12:34:13.779Z,38.77
2022-07-28T12:36:42.552Z,39.32
2022-07-28T12:39:13.213Z,38.15
2022-07-28T12:41:42.176Z,37.59
2022-07-28T12:44:11.474Z,37.83
2022-07-28T12:46:40.267Z,38.21
2022-07-28T12:49:24.346Z,39.11
2022-07-28T12:51:53.084Z,39.43
2022-07-28T12:54:35.617Z,38.75
2022-07-28T12:57:04.271Z,38.11
2022-07-28T12:59:40.349Z,37.34
2022-07-28T13:02:09.632Z,37.35
2022-07-28T13:04:49.445Z,38.88
2022-07-28T13:07:30.621Z,38.07
2022-07-28T13:10:03.621Z,37.27
2022-07-28T13:12:34.084Z,37.12
2022-07-28T13:15:04.089Z,38.48
2022-07-28T13:17:54.981Z,38.48
2022-07-28T13:20:25.419Z,39.70
2022-07-28T13:22:54.305Z,39.55
2022-07-28T13:25:22.741Z,39.60
2022-07-28T13:27:55.084Z,40.11
2022-07-28T13:30:24.079Z,39.13
2022-07-28T13:32:54.635Z,38.73
2022-07-28T13:35:24.541Z,38.86
2022-07-28T13:37:52.644Z,37.67
2022-07-28T13:40:20.799Z,37.60
2022-07-28T13:42:52.982Z,37.90
2022-07-28T13:45:24.642Z,37.82
2022-07-28T13:47:53.625Z,37.39
2022-07-28T13:50:22.426Z,36.06
2022-07-28T13:52:53.692Z,36.97
2022-07-28T13:55:22.719Z,37.79
2022-07-28T13:57:51.857Z,36.75
2022-07-28T14:00:21.082Z,36.13
2022-07-28T14:02:51.107Z,35.65
2022-07-28T14:05:19.503Z,34.92
2022-07-28T14:07:49.251Z,34.69
2022-07-28T14:10:19.063Z,34.96
2022-07-28T14:12:47.318Z,35.02
2022-07-28T14:15:16.339Z,34.84
2022-07-28T14:17:45.847Z,35.36
2022-07-28T14:20:15.787Z,34.88
2022-07-28T14:22:44.286Z,35.52
2022-07-28T14:25:20.881Z,35.60
2022-07-28T14:27:51.850Z,35.23
2022-07-28T14:30:20.851Z,35.26
2022-07-28T14:32:49.385Z,34.81
2022-07-28T14:35:17.877Z,33.57
2022-07-28T14:38:35.010Z,33.59
2022-07-28T14:40:38.044Z,33.80
2022-07-28T14:43:09.365Z,33.27
2022-07-28T14:46:00.560Z,34.18
2022-07-28T14:48:26.430Z,34.16
2022-07-28T14:50:55.550Z,33.80
2022-07-28T14:53:24.228Z,33.80
2022-07-28T14:55:57.085Z,33.93
2022-07-28T14:58:27.325Z,33.01
2022-07-28T15:00:56.065Z,33.98
2022-07-28T15:03:35.827Z,33.90
2022-07-28T15:06:04.820Z,34.67
2022-07-28T15:08:33.496Z,33.93
2022-07-28T15:11:01.653Z,34.64
2022-07-28T15:13:32.185Z,34.29
2022-07-28T15:16:00.783Z,35.32
2022-07-28T15:18:29.470Z,34.84
2022-07-28T15:20:57.421Z,34.36
2022-07-28T15:23:26.522Z,34.21
2022-07-28T15:25:56.119Z,33.50
2022-07-28T15:28:24.605Z,33.63
2022-07-28T15:30:54.547Z,33.17
2022-07-28T15:33:25.699Z,33.43
2022-07-28T15:35:57.962Z,32.84
2022-07-28T15:38:31.589Z,32.77
2022-07-28T15:41:01.122Z,32.75
2022-07-28T15:43:30.983Z,33.12
2022-07-28T15:46:08.376Z,32.75
2022-07-28T15:48:39.640Z,33.49
2022-07-28T15:51:09.827Z,35.19
2022-07-28T15:53:39.310Z,35.45
2022-07-28T15:56:07.975Z,34.02
2022-07-28T15:58:36.853Z,34.03
2022-07-28T16:01:07.332Z,33.50
2022-07-28T16:03:37.242Z,33.69
2022-07-28T16:06:07.009Z,33.67
2022-07-28T16:08:38.241Z,33.81
2022-07-28T16:11:06.771Z,34.01
2022-07-28T16:13:37.704Z,33.71
2022-07-28T16:16:12.797Z,32.96
2022-07-28T16:18:46.436Z,33.04
2022-07-28T16:21:19.463Z,33.34
2022-07-28T16:23:54.117Z,33.43
2022-07-28T16:26:26.368Z,32.77
2022-07-28T16:28:59.008Z,33.10
2022-07-28T16:31:32.229Z,33.29
2022-07-28T16:34:00.541Z,32.89
2022-07-28T16:36:28.663Z,33.05
2022-07-28T16:39:00.181Z,32.33
2022-07-28T16:41:47.615Z,32.60
2022-07-28T16:44:19.206Z,32.18
2022-07-28T16:46:54.301Z,32.69
2022-07-28T16:49:24.238Z,32.11
2022-07-28T16:51:56.971Z,32.48
2022-07-28T16:54:28.643Z,32.39
2022-07-28T16:56:57.621Z,31.87
2022-07-28T16:59:37.058Z,33.12
2022-07-28T17:02:20.238Z,32.57
2022-07-28T17:04:50.949Z,32.36
2022-07-28T17:07:20.774Z,32.23
2022-07-28T17:09:51.715Z,32.95
2022-07-28T17:12:20.292Z,33.12
2022-07-28T17:14:51.062Z,31.68
2022-07-28T17:17:23.252Z,32.50
2022-07-28T17:19:53.628Z,31.67
2022-07-28T17:22:24.515Z,33.73
2022-07-28T17:24:55.204Z,34.04
2022-07-28T17:27:37.299Z,33.75
2022-07-28T17:30:09.686Z,34.48
2022-07-28T17:32:42.068Z,32.49
2022-07-28T17:35:31.588Z,33.52
2022-07-28T17:38:06.037Z,32.73
2022-07-28T17:40:38.961Z,32.57
2022-07-28T17:43:12.804Z,32.39
2022-07-28T17:45:46.101Z,32.07
2022-07-28T17:48:22.061Z,30.97
2022-07-28T17:50:52.837Z,32.71
2022-07-28T17:53:24.341Z,31.11
2022-07-28T17:56:00.039Z,32.18
2022-07-28T17:58:32.326Z,32.64
2022-07-28T18:01:11.183Z,32.25
2022-07-28T18:03:58.832Z,32.25
2022-07-28T18:06:35.559Z,32.20
2022-07-28T18:09:10.705Z,32.78
2022-07-28T18:11:55.763Z,32.70
2022-07-28T18:14:30.560Z,33.48
2022-07-28T18:17:02.303Z,33.44
2022-07-28T18:19:33.469Z,33.65
2022-07-28T18:22:06.237Z,33.67
2022-07-28T18:24:37.685Z,33.89
2022-07-28T18:27:07.388Z,34.41
2022-07-28T18:29:38.629Z,33.94
2022-07-28T18:32:12.578Z,34.53
2022-07-28T18:34:46.052Z,34.33
2022-07-28T18:37:14.755Z,33.80
2022-07-28T18:39:44.649Z,34.82
2022-07-28T18:42:16.986Z,34.34
2022-07-28T18:44:48.271Z,34.06
2022-07-28T18:47:16.567Z,34.62
2022-07-28T18:49:46.027Z,34.70
2022-07-28T18:52:16.692Z,34.80
2022-07-28T18:54:47.413Z,34.49
2022-07-28T18:57:18.490Z,34.61
2022-07-28T18:59:52.079Z,34.48
2022-07-28T19:02:26.356Z,34.92
2022-07-28T19:04:59.984Z,35.60
2022-07-28T19:07:34.756Z,35.33
2022-07-28T19:10:09.980Z,35.91
2022-07-28T19:12:38.542Z,35.84
2022-07-28T19:15:08.232Z,36.25
2022-07-28T19:17:36.338Z,36.11
2022-07-28T19:20:11.102Z,36.10
2022-07-28T19:22:39.578Z,35.58
2022-07-28T19:25:09.224Z,36.06
2022-07-28T19:27:37.848Z,36.28
2022-07-28T19:30:08.899Z,36.43
2022-07-28T19:32:42.973Z,36.66
2022-07-28T19:35:14.563Z,37.50
2022-07-28T19:37:45.029Z,37.80
2022-07-28T19:40:15.495Z,37.87
2022-07-28T19:42:45.424Z,37.41
2022-07-28T19:45:14.202Z,37.53
2022-07-28T19:47:44.950Z,37.50
2022-07-28T19:50:17.353Z,37.46
2022-07-28T19:52:49.284Z,37.31
2022-07-28T19:55:18.991Z,37.51
2022-07-28T19:57:49.313Z,37.70
2022-07-28T20:00:18.583Z,37.71
2022-07-28T20:02:47.058Z,37.45
2022-07-28T20:05:18.325Z,37.44
2022-07-28T20:07:48.720Z,37.65
2022-07-28T20:10:17.411Z,37.46
2022-07-28T20:12:48.662Z,37.65
2022-07-28T20:15:17.024Z,37.49
2022-07-28T20:17:47.535Z,37.76
2022-07-28T20:20:25.575Z,37.89
2022-07-28T20:22:56.350Z,37.33
2022-07-28T20:25:26.355Z,37.14
2022-07-28T20:27:57.763Z,36.63
2022-07-28T20:30:27.764Z,36.92
2022-07-28T20:32:56.476Z,37.31
2022-07-28T20:35:29.444Z,37.31
2022-07-28T20:38:02.284Z,37.33
2022-07-28T20:40:33.208Z,37.37
2022-07-28T20:43:02.048Z,37.22
2022-07-28T20:45:31.948Z,37.07
2022-07-28T20:48:03.405Z,37.33
2022-07-28T20:50:35.222Z,37.08
2022-07-28T20:53:09.851Z,36.87
2022-07-28T20:55:40.168Z,37.21
2022-07-28T20:58:08.466Z,37.63
2022-07-28T21:00:39.559Z,37.89
2022-07-28T21:03:11.180Z,37.64
2022-07-28T21:05:43.141Z,37.85
2022-07-28T21:08:16.948Z,37.41
2022-07-28T21:10:49.185Z,37.40
2022-07-28T21:13:18.765Z,37.75
2022-07-28T21:15:47.086Z,37.19
2022-07-28T21:18:17.414Z,37.09
2022-07-28T21:20:48.524Z,37.10
2022-07-28T21:23:18.976Z,37.51
2022-07-28T21:25:49.662Z,37.71
2022-07-28T21:28:37.509Z,37.29
2022-07-28T21:31:10.436Z,37.56
2022-07-28T21:33:40.569Z,37.89
2022-07-28T21:36:11.696Z,37.91
2022-07-28T21:38:40.598Z,38.07
2022-07-28T21:41:09.899Z,37.63
2022-07-28T21:43:39.858Z,37.77
2022-07-28T21:46:08.444Z,37.54
2022-07-28T21:48:38.646Z,37.75
2022-07-28T21:51:14.840Z,37.57
2022-07-28T21:53:51.480Z,37.78
2022-07-28T21:56:24.056Z,37.23
2022-07-28T21:58:54.339Z,37.76
2022-07-28T22:01:25.973Z,37.82
2022-07-28T22:03:56.152Z,37.93
2022-07-28T22:06:26.789Z,37.96
2022-07-28T22:08:58.601Z,37.74
2022-07-28T22:11:28.023Z,38.03
2022-07-28T22:13:58.815Z,37.63
2022-07-28T22:16:30.305Z,37.79
2022-07-28T22:19:01.313Z,37.70
2022-07-28T22:21:33.072Z,37.85
2022-07-28T22:24:03.396Z,37.90
2022-07-28T22:26:34.567Z,37.74
2022-07-28T22:29:07.149Z,37.61
2022-07-28T22:31:38.823Z,37.91
2022-07-28T22:34:08.699Z,37.96
2022-07-28T22:36:39.204Z,38.24
2022-07-28T22:39:11.713Z,38.10
2022-07-28T22:41:41.992Z,38.28
2022-07-28T22:44:19.754Z,38.22
2022-07-28T22:46:50.990Z,38.09
2022-07-28T22:49:21.731Z,37.92
2022-07-28T22:51:53.849Z,38.09
2022-07-28T22:54:26.555Z,38.53
2022-07-28T22:56:58.150Z,38.53
2022-07-28T22:59:33.897Z,38.60
2022-07-28T23:02:11.670Z,38.61
2022-07-28T23:04:40.045Z,38.81
2022-07-28T23:07:17.949Z,38.62
2022-07-28T23:09:51.818Z,37.97
2022-07-28T23:12:20.475Z,37.93
2022-07-28T23:14:48.563Z,37.69
2022-07-28T23:17:16.860Z,37.69
2022-07-28T23:19:44.863Z,38.16
2022-07-28T23:22:12.903Z,38.30
2022-07-28T23:24:41.050Z,38.01
2022-07-28T23:27:10.399Z,38.01
2022-07-28T23:29:38.532Z,38.14
2022-07-28T23:32:12.657Z,38.43
2022-07-28T23:34:43.288Z,38.21
2022-07-28T23:37:11.898Z,38.08
2022-07-28T23:39:39.958Z,38.40
2022-07-28T23:42:08.418Z,38.58
2022-07-28T23:44:37.839Z,38.79
2022-07-28T23:47:06.256Z,38.56
2022-07-28T23:49:34.531Z,38.64
2022-07-28T23:52:02.811Z,38.50
2022-07-28T23:54:31.054Z,38.66
2022-07-28T23:56:59.186Z,38.71
2022-07-28T23:59:27.161Z,39.10
